Nixe — ECGW — position and weather

sailwx.info

Track history (hours):
 
Tides and Currents Weather Stations Pressure Air Temp Water Temp Dewpoint Dewpoint Depression Visibility Wind Speed Wind Dir Waves Ship Positions

Nixe

Last reported at 2017-Dec-11 16:20 UTC. Time now 2017-Dec-13 08:59 UTC.
Position N 38°49' E 001°25'.

Length 63 m; draft 2 m.

Type: Passenger vessel. MMSI: 224264000.

Date/timePositionNaut miles runAvg speedWind from/ knotsBaromVisibWave heightAir tempDewpointWater temp
2017-Dec-11 16:20N 38°49' E 001°25'6 7.4
2017-Dec-11 15:35N 38°55' E 001°26'1 7.0
2017-Dec-11 15:30N 38°54' E 001°27'0 0.1
2017-Dec-11 14:47N 38°54' E 001°27'0 0.0
2017-Dec-11 13:43N 38°54' E 001°27'0 0.0
2017-Dec-11 13:25N 38°54' E 001°27'0 0.0
2017-Dec-11 12:56N 38°54' E 001°27'0 0.0
2017-Dec-11 12:22N 38°54' E 001°27'0 0.0
2017-Dec-11 11:58N 38°54' E 001°27'0 0.0
2017-Dec-11 11:18N 38°54' E 001°27'0 0.0
2017-Dec-11 10:53N 38°54' E 001°27'0 0.0
2017-Dec-11 10:22N 38°54' E 001°27'0 0.0
2017-Dec-11 09:57N 38°54' E 001°27'0 0.0
2017-Dec-11 09:29N 38°54' E 001°27'0 0.0
2017-Dec-11 08:48N 38°54' E 001°27'0 0.0
2017-Dec-11 08:26N 38°54' E 001°27'0 0.0
2017-Dec-11 07:58N 38°54' E 001°27'0 0.0
2017-Dec-11 07:03N 38°54' E 001°27'0 0.0
2017-Dec-11 06:56N 38°54' E 001°27'0 0.0
2017-Dec-11 06:22N 38°54' E 001°27'0 0.0
2017-Dec-11 05:51N 38°54' E 001°27'0 0.0
2017-Dec-11 05:25N 38°54' E 001°27'0 0.0
2017-Dec-11 04:26N 38°54' E 001°27'0 0.0
2017-Dec-11 03:58N 38°54' E 001°27'0 0.0
2017-Dec-11 03:24N 38°54' E 001°27'0 0.0
2017-Dec-11 03:00N 38°54' E 001°27'0 0.0
2017-Dec-11 02:27N 38°54' E 001°27'0 0.0
2017-Dec-11 01:52N 38°54' E 001°27'0 0.0
2017-Dec-11 01:30N 38°54' E 001°27'0 0.0
2017-Dec-11 01:00N 38°54' E 001°27'0 0.0
2017-Dec-10 23:22N 38°54' E 001°27'0 0.0
2017-Dec-10 22:47N 38°54' E 001°27'0 0.0
2017-Dec-10 21:56N 38°54' E 001°27'0 0.0
2017-Dec-10 21:29N 38°54' E 001°27'0 0.0
2017-Dec-10 20:49N 38°54' E 001°27'0 0.0
2017-Dec-10 20:27N 38°54' E 001°27'0 0.0
2017-Dec-10 19:38N 38°54' E 001°27'0 0.0
2017-Dec-10 19:25N 38°54' E 001°27'1 0.2
2017-Dec-10 15:42N 38°55' E 001°26'0 0.0
2017-Dec-10 15:15N 38°55' E 001°26'0 0.0
2017-Dec-10 14:46N 38°55' E 001°26'0 0.0
2017-Dec-10 14:22N 38°55' E 001°26'5 1.9
2017-Dec-10 11:50N 38°50' E 001°26'5 1.3
2017-Dec-10 08:15N 38°55' E 001°26'0 0.0
2017-Dec-10 03:52N 38°55' E 001°26'0 0.0
2017-Dec-10 03:25N 38°55' E 001°26'0 0.0
2017-Dec-10 02:58N 38°55' E 001°26'0 0.0
2017-Dec-10 01:14N 38°55' E 001°26'0 0.0
2017-Dec-10 00:08N 38°55' E 001°26'0 0.0
2017-Dec-09 23:57N 38°55' E 001°26'0 0.0
2017-Dec-09 23:20N 38°55' E 001°26'0 0.0
2017-Dec-09 20:31N 38°55' E 001°26'0 0.0
2017-Dec-09 19:10N 38°55' E 001°26'0 0.0
2017-Dec-09 18:53N 38°55' E 001°26'0 0.0
2017-Dec-09 18:23N 38°55' E 001°26'0 0.0
2017-Dec-09 18:00N 38°55' E 001°26'5 2.3
2017-Dec-09 15:48N 38°50' E 001°25'516.7
2017-Dec-09 15:29N 38°55' E 001°26'0 0.0
2017-Dec-09 14:59N 38°55' E 001°26'0 0.0
2017-Dec-09 14:30N 38°55' E 001°26'2 3.4
2017-Dec-09 13:52N 38°53' E 001°26'3 1.2
2017-Dec-09 11:47N 38°50' E 001°26'512.9
2017-Dec-09 11:25N 38°55' E 001°26'0 0.0
2017-Dec-09 10:59N 38°55' E 001°26'5 2.7
2017-Dec-09 09:18N 38°50' E 001°25'510.1
2017-Dec-09 08:51N 38°55' E 001°26'0 0.7
2017-Dec-09 08:30N 38°55' E 001°26'0 0.0
2017-Dec-09 07:59N 38°55' E 001°26'1 2.0
2017-Dec-09 07:30N 38°54' E 001°27'4 3.2
2017-Dec-09 06:16N 38°50' E 001°26'5 9.8
2017-Dec-09 05:47N 38°55' E 001°26'0 0.0
2017-Dec-09 05:25N 38°55' E 001°26'0 0.0
2017-Dec-09 05:00N 38°55' E 001°26'0 0.0
2017-Dec-09 04:29N 38°55' E 001°26'0 0.0
2017-Dec-09 03:52N 38°55' E 001°26'0 0.0
2017-Dec-09 03:30N 38°55' E 001°26'0 0.0
2017-Dec-09 02:50N 38°55' E 001°26'0 0.0
2017-Dec-09 01:58N 38°55' E 001°26'0 0.0
2017-Dec-09 00:15N 38°55' E 001°26'0 0.0
2017-Dec-08 23:55N 38°55' E 001°26'0 0.0
2017-Dec-08 23:30N 38°55' E 001°26'0 0.0
2017-Dec-08 22:58N 38°55' E 001°26'0 0.0
2017-Dec-08 22:28N 38°55' E 001°26'1 0.3
2017-Dec-08 20:37N 38°54' E 001°27'1 2.2
2017-Dec-08 20:20N 38°55' E 001°26'0 0.0
2017-Dec-08 19:58N 38°55' E 001°26'0 0.0
2017-Dec-08 19:07N 38°55' E 001°26'0 0.0
2017-Dec-08 18:59N 38°55' E 001°26'0 0.0
2017-Dec-08 18:24N 38°55' E 001°26'0 0.0
2017-Dec-08 15:40N 38°55' E 001°26'0 0.0
2017-Dec-08 15:05N 38°55' E 001°26'5 1.6
2017-Dec-08 11:50N 38°50' E 001°26'515.6
2017-Dec-08 11:30N 38°55' E 001°26'0 0.0
2017-Dec-08 09:01N 38°55' E 001°26'0 0.0
2017-Dec-08 08:40N 38°55' E 001°26'0 0.0
2017-Dec-08 07:42N 38°55' E 001°26'0 0.1
2017-Dec-08 06:03N 38°55' E 001°26'0 4.0
2017-Dec-08 06:00N 38°55' E 001°26'0 0.0
2017-Dec-08 05:30N 38°55' E 001°26'0 0.0
2017-Dec-08 04:59N 38°55' E 001°26'0 0.0
2017-Dec-08 04:30N 38°55' E 001°26'0 0.0
2017-Dec-08 04:00N 38°55' E 001°26'0 0.0
2017-Dec-08 03:27N 38°55' E 001°26'0 0.0
2017-Dec-08 02:59N 38°55' E 001°26'0 0.0
2017-Dec-08 02:30N 38°55' E 001°26'0 0.0
2017-Dec-08 02:00N 38°55' E 001°26'0 0.0
2017-Dec-08 01:30N 38°55' E 001°26'0 0.0
2017-Dec-08 01:00N 38°55' E 001°26'0 0.0
2017-Dec-08 00:29N 38°55' E 001°26'0 0.0
2017-Dec-07 23:59N 38°55' E 001°26'0 0.0
2017-Dec-07 23:30N 38°55' E 001°26'0 0.0
2017-Dec-07 22:58N 38°55' E 001°26'0 0.0
2017-Dec-07 22:25N 38°55' E 001°26'5 3.1
2017-Dec-07 20:50N 38°50' E 001°26'514.2
2017-Dec-07 20:30N 38°55' E 001°26'0 0.0
2017-Dec-07 20:00N 38°55' E 001°26'0 0.0
2017-Dec-07 19:29N 38°55' E 001°26'0 0.0
2017-Dec-07 18:59N 38°55' E 001°26'0 0.0
2017-Dec-07 18:30N 38°55' E 001°26'0 0.0
2017-Dec-07 17:59N 38°55' E 001°26'6 2.9
2017-Dec-07 15:54N 38°49' E 001°25'614.5
2017-Dec-07 15:29N 38°55' E 001°26'0 0.0
2017-Dec-07 14:59N 38°55' E 001°26'0 0.0
2017-Dec-07 14:29N 38°55' E 001°26'2 3.8
2017-Dec-07 13:56N 38°53' E 001°26'3 1.3
2017-Dec-07 11:52N 38°50' E 001°26'5 9.2
2017-Dec-07 11:22N 38°55' E 001°26'0 0.0
2017-Dec-07 10:59N 38°55' E 001°26'5 3.0
2017-Dec-07 09:23N 38°50' E 001°25'511.9
2017-Dec-07 08:59N 38°55' E 001°26'0 0.5
2017-Dec-07 08:29N 38°55' E 001°26'0 0.0
2017-Dec-07 08:00N 38°55' E 001°26'3 5.0
2017-Dec-07 07:27N 38°52' E 001°26'5 5.1
2017-Dec-07 06:27N 38°47' E 001°25'8 7.3
2017-Dec-07 05:24N 38°55' E 001°26'0 0.0
2017-Dec-07 04:07N 38°55' E 001°26'0 0.0
2017-Dec-07 03:20N 38°55' E 001°26'0 0.0
2017-Dec-07 01:43N 38°55' E 001°26'0 0.0
2017-Dec-07 01:15N 38°55' E 001°26'0 0.0
2017-Dec-07 00:13N 38°55' E 001°26'0 0.0
2017-Dec-07 00:00N 38°55' E 001°26'0 0.0
2017-Dec-06 22:36N 38°55' E 001°26'0 0.0
2017-Dec-06 22:21N 38°55' E 001°26'  
2017-Dec-04 09:12N 38°53' E 001°27'1 2.7
2017-Dec-04 08:43N 38°55' E 001°26'0 0.0
2017-Dec-04 08:03N 38°55' E 001°26'4 2.0
2017-Dec-04 06:15N 38°51' E 001°26'410.1
2017-Dec-04 05:54N 38°55' E 001°26'0 0.0
2017-Dec-04 05:00N 38°55' E 001°26'0 0.0
2017-Dec-04 04:21N 38°55' E 001°26'0 0.0
2017-Dec-04 03:54N 38°55' E 001°26'0 0.0
2017-Dec-04 03:25N 38°55' E 001°26'0 0.0
2017-Dec-04 03:00N 38°55' E 001°26'0 0.0
2017-Dec-04 02:17N 38°55' E 001°26'0 0.0
2017-Dec-04 01:58N 38°55' E 001°26'0 0.0
2017-Dec-04 00:58N 38°55' E 001°26'0 0.0
2017-Dec-03 23:58N 38°55' E 001°26'0 0.0
2017-Dec-03 22:54N 38°55' E 001°26'0 0.2
2017-Dec-03 20:35N 38°55' E 001°27'0 3.0
2017-Dec-03 20:25N 38°55' E 001°26'0 0.0
2017-Dec-03 19:03N 38°55' E 001°26'0 0.0
2017-Dec-03 18:04N 38°55' E 001°26'0 4.1
2017-Dec-03 18:00N 38°55' E 001°26'4 2.1
2017-Dec-03 16:15N 38°51' E 001°26'414.6
2017-Dec-03 16:00N 38°55' E 001°26'0 0.0
2017-Dec-03 15:29N 38°55' E 001°26'0 0.0
2017-Dec-03 14:58N 38°55' E 001°26'0 0.0
2017-Dec-03 14:30N 38°55' E 001°26'4 5.4
2017-Dec-03 13:50N 38°51' E 001°26'2 1.0
2017-Dec-03 11:50N 38°49' E 001°25'616.3
2017-Dec-03 11:30N 38°55' E 001°26'0 0.0
2017-Dec-03 11:00N 38°55' E 001°26'2 3.4
2017-Dec-03 10:26N 38°53' E 001°27'4 3.4
2017-Dec-03 09:21N 38°49' E 001°25'514.7
2017-Dec-03 08:59N 38°55' E 001°26'0 0.0
2017-Dec-03 08:29N 38°55' E 001°26'0 0.0
2017-Dec-03 07:59N 38°55' E 001°26'1 2.7
2017-Dec-03 07:29N 38°53' E 001°27'3 2.6
2017-Dec-03 06:16N 38°50' E 001°26'416.6
2017-Dec-03 06:01N 38°55' E 001°26'0 0.0
2017-Dec-03 05:29N 38°55' E 001°26'0 0.0
2017-Dec-03 04:59N 38°55' E 001°26'0 0.0
2017-Dec-03 04:27N 38°55' E 001°26'0 0.0
2017-Dec-03 04:00N 38°55' E 001°26'0 0.0
2017-Dec-03 03:29N 38°55' E 001°26'0 0.0
2017-Dec-03 02:53N 38°55' E 001°26'0 0.0
2017-Dec-03 02:29N 38°55' E 001°26'0 0.0
2017-Dec-03 02:00N 38°55' E 001°26'0 0.0
2017-Dec-03 01:30N 38°55' E 001°26'0 0.0
2017-Dec-03 00:59N 38°55' E 001°26'0 0.0
2017-Dec-03 00:28N 38°55' E 001°26'0 0.0
2017-Dec-02 23:59N 38°55' E 001°26'0 0.0
2017-Dec-02 23:30N 38°55' E 001°26'0 0.0
2017-Dec-02 22:59N 38°55' E 001°26'0 0.0
2017-Dec-02 22:25N 38°55' E 001°26'0 0.0
2017-Dec-02 21:59N 38°55' E 001°26'0 0.0
2017-Dec-02 21:23N 38°55' E 001°26'0 0.0
2017-Dec-02 20:59N 38°55' E 001°26'0 0.0
2017-Dec-02 20:30N 38°55' E 001°26'0 0.0
2017-Dec-02 20:00N 38°55' E 001°26'0 0.0
2017-Dec-02 19:28N 38°55' E 001°26'0 0.0
2017-Dec-02 18:52N 38°55' E 001°26'0 0.0
2017-Dec-02 18:29N 38°55' E 001°26'0 0.0
2017-Dec-02 18:00N 38°55' E 001°26'0 0.5
2017-Dec-02 17:30N 38°55' E 001°26'0 0.0
2017-Dec-02 16:59N 38°55' E 001°26'0 0.0
2017-Dec-02 16:29N 38°55' E 001°26'0 0.0
2017-Dec-02 15:59N 38°55' E 001°26'0 0.0
2017-Dec-02 15:29N 38°55' E 001°26'0 0.0
2017-Dec-02 15:01N 38°55' E 001°26'0 0.0
2017-Dec-02 14:28N 38°55' E 001°26'0 0.0
2017-Dec-02 13:57N 38°55' E 001°26'0 0.0
2017-Dec-02 13:27N 38°55' E 001°26'0 0.0
2017-Dec-02 12:59N 38°55' E 001°26'0 0.0
2017-Dec-02 12:28N 38°55' E 001°26'0 0.0
2017-Dec-02 12:00N 38°55' E 001°26'0 0.0
2017-Dec-02 11:29N 38°55' E 001°26'0 0.0
2017-Dec-02 10:56N 38°55' E 001°26'0 0.0
2017-Dec-02 10:29N 38°55' E 001°26'0 0.0
2017-Dec-02 10:00N 38°55' E 001°26'0 0.0
2017-Dec-02 09:27N 38°55' E 001°26'0 0.0
2017-Dec-02 08:57N 38°55' E 001°26'0 0.0
2017-Dec-02 08:30N 38°55' E 001°26'0 0.0
2017-Dec-02 07:59N 38°55' E 001°26'0 0.5
2017-Dec-02 07:29N 38°55' E 001°26'0 0.0
2017-Dec-02 07:00N 38°55' E 001°26'0 0.0
2017-Dec-02 06:30N 38°55' E 001°26'0 0.0
2017-Dec-02 05:53N 38°55' E 001°26'0 0.0
2017-Dec-02 04:32N 38°55' E 001°26'0 0.0
2017-Dec-02 04:17N 38°55' E 001°26'0 0.0
2017-Dec-02 03:43N 38°55' E 001°26'0 0.0
2017-Dec-02 02:44N 38°55' E 001°26'0 0.0
2017-Dec-02 02:27N 38°55' E 001°26'0 0.0
2017-Dec-02 00:51N 38°55' E 001°26'0 0.0
2017-Dec-02 00:30N 38°55' E 001°26'0 0.0
2017-Dec-02 00:00N 38°55' E 001°26'0 0.0
2017-Dec-01 23:05N 38°55' E 001°26'0 0.0
2017-Dec-01 22:53N 38°55' E 001°26'0 0.0
2017-Dec-01 21:46N 38°55' E 001°26'0 0.0
2017-Dec-01 21:23N 38°55' E 001°26'0 0.0
2017-Dec-01 20:44N 38°55' E 001°26'0 0.0
2017-Dec-01 19:38N 38°55' E 001°26'0 0.0
2017-Dec-01 19:16N 38°55' E 001°26'0 0.0
2017-Dec-01 18:48N 38°55' E 001°26'0 0.0
2017-Dec-01 18:07N 38°55' E 001°26'0 0.0
2017-Dec-01 18:00N 38°55' E 001°26'  
Track history (hours):
 
Tides and Currents Weather Stations Pressure Air Temp Water Temp Dewpoint Dewpoint Depression Visibility Wind Speed Wind Dir Waves Ship Positions

Nixe

Last reported at 2017-Dec-11 16:20 UTC. Time now 2017-Dec-13 08:59 UTC.
Position N 38°49' E 001°25'.

Length 63 m; draft 2 m.

Type: Passenger vessel. MMSI: 224264000.

Date/timePositionNaut miles runAvg speedWind from/ knotsBaromVisibWave heightAir tempDewpointWater temp
2017-Dec-11 16:20N 38°49' E 001°25'6 7.4
2017-Dec-11 15:35N 38°55' E 001°26'1 7.0
2017-Dec-11 15:30N 38°54' E 001°27'0 0.1
2017-Dec-11 14:47N 38°54' E 001°27'0 0.0
2017-Dec-11 13:43N 38°54' E 001°27'0 0.0
2017-Dec-11 13:25N 38°54' E 001°27'0 0.0
2017-Dec-11 12:56N 38°54' E 001°27'0 0.0
2017-Dec-11 12:22N 38°54' E 001°27'0 0.0
2017-Dec-11 11:58N 38°54' E 001°27'0 0.0
2017-Dec-11 11:18N 38°54' E 001°27'0 0.0
2017-Dec-11 10:53N 38°54' E 001°27'0 0.0
2017-Dec-11 10:22N 38°54' E 001°27'0 0.0
2017-Dec-11 09:57N 38°54' E 001°27'0 0.0
2017-Dec-11 09:29N 38°54' E 001°27'0 0.0
2017-Dec-11 08:48N 38°54' E 001°27'0 0.0
2017-Dec-11 08:26N 38°54' E 001°27'0 0.0
2017-Dec-11 07:58N 38°54' E 001°27'0 0.0
2017-Dec-11 07:03N 38°54' E 001°27'0 0.0
2017-Dec-11 06:56N 38°54' E 001°27'0 0.0
2017-Dec-11 06:22N 38°54' E 001°27'0 0.0
2017-Dec-11 05:51N 38°54' E 001°27'0 0.0
2017-Dec-11 05:25N 38°54' E 001°27'0 0.0
2017-Dec-11 04:26N 38°54' E 001°27'0 0.0
2017-Dec-11 03:58N 38°54' E 001°27'0 0.0
2017-Dec-11 03:24N 38°54' E 001°27'0 0.0
2017-Dec-11 03:00N 38°54' E 001°27'0 0.0
2017-Dec-11 02:27N 38°54' E 001°27'0 0.0
2017-Dec-11 01:52N 38°54' E 001°27'0 0.0
2017-Dec-11 01:30N 38°54' E 001°27'0 0.0
2017-Dec-11 01:00N 38°54' E 001°27'0 0.0
2017-Dec-10 23:22N 38°54' E 001°27'0 0.0
2017-Dec-10 22:47N 38°54' E 001°27'0 0.0
2017-Dec-10 21:56N 38°54' E 001°27'0 0.0
2017-Dec-10 21:29N 38°54' E 001°27'0 0.0
2017-Dec-10 20:49N 38°54' E 001°27'0 0.0
2017-Dec-10 20:27N 38°54' E 001°27'0 0.0
2017-Dec-10 19:38N 38°54' E 001°27'0 0.0
2017-Dec-10 19:25N 38°54' E 001°27'1 0.2
2017-Dec-10 15:42N 38°55' E 001°26'0 0.0
2017-Dec-10 15:15N 38°55' E 001°26'0 0.0
2017-Dec-10 14:46N 38°55' E 001°26'0 0.0
2017-Dec-10 14:22N 38°55' E 001°26'5 1.9
2017-Dec-10 11:50N 38°50' E 001°26'5 1.3
2017-Dec-10 08:15N 38°55' E 001°26'0 0.0
2017-Dec-10 03:52N 38°55' E 001°26'0 0.0
2017-Dec-10 03:25N 38°55' E 001°26'0 0.0
2017-Dec-10 02:58N 38°55' E 001°26'0 0.0
2017-Dec-10 01:14N 38°55' E 001°26'0 0.0
2017-Dec-10 00:08N 38°55' E 001°26'0 0.0
2017-Dec-09 23:57N 38°55' E 001°26'0 0.0
2017-Dec-09 23:20N 38°55' E 001°26'0 0.0
2017-Dec-09 20:31N 38°55' E 001°26'0 0.0
2017-Dec-09 19:10N 38°55' E 001°26'0 0.0
2017-Dec-09 18:53N 38°55' E 001°26'0 0.0
2017-Dec-09 18:23N 38°55' E 001°26'0 0.0
2017-Dec-09 18:00N 38°55' E 001°26'5 2.3
2017-Dec-09 15:48N 38°50' E 001°25'516.7
2017-Dec-09 15:29N 38°55' E 001°26'0 0.0
2017-Dec-09 14:59N 38°55' E 001°26'0 0.0
2017-Dec-09 14:30N 38°55' E 001°26'2 3.4
2017-Dec-09 13:52N 38°53' E 001°26'3 1.2
2017-Dec-09 11:47N 38°50' E 001°26'512.9
2017-Dec-09 11:25N 38°55' E 001°26'0 0.0
2017-Dec-09 10:59N 38°55' E 001°26'5 2.7
2017-Dec-09 09:18N 38°50' E 001°25'510.1
2017-Dec-09 08:51N 38°55' E 001°26'0 0.7
2017-Dec-09 08:30N 38°55' E 001°26'0 0.0
2017-Dec-09 07:59N 38°55' E 001°26'1 2.0
2017-Dec-09 07:30N 38°54' E 001°27'4 3.2
2017-Dec-09 06:16N 38°50' E 001°26'5 9.8
2017-Dec-09 05:47N 38°55' E 001°26'0 0.0
2017-Dec-09 05:25N 38°55' E 001°26'0 0.0
2017-Dec-09 05:00N 38°55' E 001°26'0 0.0
2017-Dec-09 04:29N 38°55' E 001°26'0 0.0
2017-Dec-09 03:52N 38°55' E 001°26'0 0.0
2017-Dec-09 03:30N 38°55' E 001°26'0 0.0
2017-Dec-09 02:50N 38°55' E 001°26'0 0.0
2017-Dec-09 01:58N 38°55' E 001°26'0 0.0
2017-Dec-09 00:15N 38°55' E 001°26'0 0.0
2017-Dec-08 23:55N 38°55' E 001°26'0 0.0
2017-Dec-08 23:30N 38°55' E 001°26'0 0.0
2017-Dec-08 22:58N 38°55' E 001°26'0 0.0
2017-Dec-08 22:28N 38°55' E 001°26'1 0.3
2017-Dec-08 20:37N 38°54' E 001°27'1 2.2
2017-Dec-08 20:20N 38°55' E 001°26'0 0.0
2017-Dec-08 19:58N 38°55' E 001°26'0 0.0
2017-Dec-08 19:07N 38°55' E 001°26'0 0.0
2017-Dec-08 18:59N 38°55' E 001°26'0 0.0
2017-Dec-08 18:24N 38°55' E 001°26'0 0.0
2017-Dec-08 15:40N 38°55' E 001°26'0 0.0
2017-Dec-08 15:05N 38°55' E 001°26'5 1.6
2017-Dec-08 11:50N 38°50' E 001°26'515.6
2017-Dec-08 11:30N 38°55' E 001°26'0 0.0
2017-Dec-08 09:01N 38°55' E 001°26'0 0.0
2017-Dec-08 08:40N 38°55' E 001°26'0 0.0
2017-Dec-08 07:42N 38°55' E 001°26'0 0.1
2017-Dec-08 06:03N 38°55' E 001°26'0 4.0
2017-Dec-08 06:00N 38°55' E 001°26'0 0.0
2017-Dec-08 05:30N 38°55' E 001°26'0 0.0
2017-Dec-08 04:59N 38°55' E 001°26'0 0.0
2017-Dec-08 04:30N 38°55' E 001°26'0 0.0
2017-Dec-08 04:00N 38°55' E 001°26'0 0.0
2017-Dec-08 03:27N 38°55' E 001°26'0 0.0
2017-Dec-08 02:59N 38°55' E 001°26'0 0.0
2017-Dec-08 02:30N 38°55' E 001°26'0 0.0
2017-Dec-08 02:00N 38°55' E 001°26'0 0.0
2017-Dec-08 01:30N 38°55' E 001°26'0 0.0
2017-Dec-08 01:00N 38°55' E 001°26'0 0.0
2017-Dec-08 00:29N 38°55' E 001°26'0 0.0
2017-Dec-07 23:59N 38°55' E 001°26'0 0.0
2017-Dec-07 23:30N 38°55' E 001°26'0 0.0
2017-Dec-07 22:58N 38°55' E 001°26'0 0.0
2017-Dec-07 22:25N 38°55' E 001°26'5 3.1
2017-Dec-07 20:50N 38°50' E 001°26'514.2
2017-Dec-07 20:30N 38°55' E 001°26'0 0.0
2017-Dec-07 20:00N 38°55' E 001°26'0 0.0
2017-Dec-07 19:29N 38°55' E 001°26'0 0.0
2017-Dec-07 18:59N 38°55' E 001°26'0 0.0
2017-Dec-07 18:30N 38°55' E 001°26'0 0.0
2017-Dec-07 17:59N 38°55' E 001°26'6 2.9
2017-Dec-07 15:54N 38°49' E 001°25'614.5
2017-Dec-07 15:29N 38°55' E 001°26'0 0.0
2017-Dec-07 14:59N 38°55' E 001°26'0 0.0
2017-Dec-07 14:29N 38°55' E 001°26'2 3.8
2017-Dec-07 13:56N 38°53' E 001°26'3 1.3
2017-Dec-07 11:52N 38°50' E 001°26'5 9.2
2017-Dec-07 11:22N 38°55' E 001°26'0 0.0
2017-Dec-07 10:59N 38°55' E 001°26'5 3.0
2017-Dec-07 09:23N 38°50' E 001°25'511.9
2017-Dec-07 08:59N 38°55' E 001°26'0 0.5
2017-Dec-07 08:29N 38°55' E 001°26'0 0.0
2017-Dec-07 08:00N 38°55' E 001°26'3 5.0
2017-Dec-07 07:27N 38°52' E 001°26'5 5.1
2017-Dec-07 06:27N 38°47' E 001°25'8 7.3
2017-Dec-07 05:24N 38°55' E 001°26'0 0.0
2017-Dec-07 04:07N 38°55' E 001°26'0 0.0
2017-Dec-07 03:20N 38°55' E 001°26'0 0.0
2017-Dec-07 01:43N 38°55' E 001°26'0 0.0
2017-Dec-07 01:15N 38°55' E 001°26'0 0.0
2017-Dec-07 00:13N 38°55' E 001°26'0 0.0
2017-Dec-07 00:00N 38°55' E 001°26'0 0.0
2017-Dec-06 22:36N 38°55' E 001°26'0 0.0
2017-Dec-06 22:21N 38°55' E 001°26'  
2017-Dec-04 09:12N 38°53' E 001°27'1 2.7
2017-Dec-04 08:43N 38°55' E 001°26'0 0.0
2017-Dec-04 08:03N 38°55' E 001°26'4 2.0
2017-Dec-04 06:15N 38°51' E 001°26'410.1
2017-Dec-04 05:54N 38°55' E 001°26'0 0.0
2017-Dec-04 05:00N 38°55' E 001°26'0 0.0
2017-Dec-04 04:21N 38°55' E 001°26'0 0.0
2017-Dec-04 03:54N 38°55' E 001°26'0 0.0
2017-Dec-04 03:25N 38°55' E 001°26'0 0.0
2017-Dec-04 03:00N 38°55' E 001°26'0 0.0
2017-Dec-04 02:17N 38°55' E 001°26'0 0.0
2017-Dec-04 01:58N 38°55' E 001°26'0 0.0
2017-Dec-04 00:58N 38°55' E 001°26'0 0.0
2017-Dec-03 23:58N 38°55' E 001°26'0 0.0
2017-Dec-03 22:54N 38°55' E 001°26'0 0.2
2017-Dec-03 20:35N 38°55' E 001°27'0 3.0
2017-Dec-03 20:25N 38°55' E 001°26'0 0.0
2017-Dec-03 19:03N 38°55' E 001°26'0 0.0
2017-Dec-03 18:04N 38°55' E 001°26'0 4.1
2017-Dec-03 18:00N 38°55' E 001°26'4 2.1
2017-Dec-03 16:15N 38°51' E 001°26'414.6
2017-Dec-03 16:00N 38°55' E 001°26'0 0.0
2017-Dec-03 15:29N 38°55' E 001°26'0 0.0
2017-Dec-03 14:58N 38°55' E 001°26'0 0.0
2017-Dec-03 14:30N 38°55' E 001°26'4 5.4
2017-Dec-03 13:50N 38°51' E 001°26'2 1.0
2017-Dec-03 11:50N 38°49' E 001°25'616.3
2017-Dec-03 11:30N 38°55' E 001°26'0 0.0
2017-Dec-03 11:00N 38°55' E 001°26'2 3.4
2017-Dec-03 10:26N 38°53' E 001°27'4 3.4
2017-Dec-03 09:21N 38°49' E 001°25'514.7
2017-Dec-03 08:59N 38°55' E 001°26'0 0.0
2017-Dec-03 08:29N 38°55' E 001°26'0 0.0
2017-Dec-03 07:59N 38°55' E 001°26'1 2.7
2017-Dec-03 07:29N 38°53' E 001°27'3 2.6
2017-Dec-03 06:16N 38°50' E 001°26'416.6
2017-Dec-03 06:01N 38°55' E 001°26'0 0.0
2017-Dec-03 05:29N 38°55' E 001°26'0 0.0
2017-Dec-03 04:59N 38°55' E 001°26'0 0.0
2017-Dec-03 04:27N 38°55' E 001°26'0 0.0
2017-Dec-03 04:00N 38°55' E 001°26'0 0.0
2017-Dec-03 03:29N 38°55' E 001°26'0 0.0
2017-Dec-03 02:53N 38°55' E 001°26'0 0.0
2017-Dec-03 02:29N 38°55' E 001°26'0 0.0
2017-Dec-03 02:00N 38°55' E 001°26'0 0.0
2017-Dec-03 01:30N 38°55' E 001°26'0 0.0
2017-Dec-03 00:59N 38°55' E 001°26'0 0.0
2017-Dec-03 00:28N 38°55' E 001°26'0 0.0
2017-Dec-02 23:59N 38°55' E 001°26'0 0.0
2017-Dec-02 23:30N 38°55' E 001°26'0 0.0
2017-Dec-02 22:59N 38°55' E 001°26'0 0.0
2017-Dec-02 22:25N 38°55' E 001°26'0 0.0
2017-Dec-02 21:59N 38°55' E 001°26'0 0.0
2017-Dec-02 21:23N 38°55' E 001°26'0 0.0
2017-Dec-02 20:59N 38°55' E 001°26'0 0.0
2017-Dec-02 20:30N 38°55' E 001°26'0 0.0
2017-Dec-02 20:00N 38°55' E 001°26'0 0.0
2017-Dec-02 19:28N 38°55' E 001°26'0 0.0
2017-Dec-02 18:52N 38°55' E 001°26'0 0.0
2017-Dec-02 18:29N 38°55' E 001°26'0 0.0
2017-Dec-02 18:00N 38°55' E 001°26'0 0.5
2017-Dec-02 17:30N 38°55' E 001°26'0 0.0
2017-Dec-02 16:59N 38°55' E 001°26'0 0.0
2017-Dec-02 16:29N 38°55' E 001°26'0 0.0
2017-Dec-02 15:59N 38°55' E 001°26'0 0.0
2017-Dec-02 15:29N 38°55' E 001°26'0 0.0
2017-Dec-02 15:01N 38°55' E 001°26'0 0.0
2017-Dec-02 14:28N 38°55' E 001°26'0 0.0
2017-Dec-02 13:57N 38°55' E 001°26'0 0.0
2017-Dec-02 13:27N 38°55' E 001°26'0 0.0
2017-Dec-02 12:59N 38°55' E 001°26'0 0.0
2017-Dec-02 12:28N 38°55' E 001°26'0 0.0
2017-Dec-02 12:00N 38°55' E 001°26'0 0.0
2017-Dec-02 11:29N 38°55' E 001°26'0 0.0
2017-Dec-02 10:56N 38°55' E 001°26'0 0.0
2017-Dec-02 10:29N 38°55' E 001°26'0 0.0
2017-Dec-02 10:00N 38°55' E 001°26'0 0.0
2017-Dec-02 09:27N 38°55' E 001°26'0 0.0
2017-Dec-02 08:57N 38°55' E 001°26'0 0.0
2017-Dec-02 08:30N 38°55' E 001°26'0 0.0
2017-Dec-02 07:59N 38°55' E 001°26'0 0.5
2017-Dec-02 07:29N 38°55' E 001°26'0 0.0
2017-Dec-02 07:00N 38°55' E 001°26'0 0.0
2017-Dec-02 06:30N 38°55' E 001°26'0 0.0
2017-Dec-02 05:53N 38°55' E 001°26'0 0.0
2017-Dec-02 04:32N 38°55' E 001°26'0 0.0
2017-Dec-02 04:17N 38°55' E 001°26'0 0.0
2017-Dec-02 03:43N 38°55' E 001°26'0 0.0
2017-Dec-02 02:44N 38°55' E 001°26'0 0.0
2017-Dec-02 02:27N 38°55' E 001°26'0 0.0
2017-Dec-02 00:51N 38°55' E 001°26'0 0.0
2017-Dec-02 00:30N 38°55' E 001°26'0 0.0
2017-Dec-02 00:00N 38°55' E 001°26'0 0.0
2017-Dec-01 23:05N 38°55' E 001°26'0 0.0
2017-Dec-01 22:53N 38°55' E 001°26'0 0.0
2017-Dec-01 21:46N 38°55' E 001°26'0 0.0
2017-Dec-01 21:23N 38°55' E 001°26'0 0.0
2017-Dec-01 20:44N 38°55' E 001°26'0 0.0
2017-Dec-01 19:38N 38°55' E 001°26'0 0.0
2017-Dec-01 19:16N 38°55' E 001°26'0 0.0
2017-Dec-01 18:48N 38°55' E 001°26'0 0.0
2017-Dec-01 18:07N 38°55' E 001°26'0 0.0
2017-Dec-01 18:00N 38°55' E 001°26'  

Dump ship's entire track history